Agoura Hills, California
Current Conditions -  °F | °C
As of 4:51 AM on Saturday 25 Oct 2014 (Local Time) from KVNY Reporting Station
Clear Clear  
Wind Chill: 58°   Ceiling: Unl
Heat Index: 58°   Visibility: 10mi
Dew Point: 40°   Wind: 0mph
Humidity: 51%   Direction: NA
Pressure: 29.99"   Gusts: NA
Location:  34.15°N, 118.77°W
Report Text: KVNY 251151Z 00000KT 10SM CLR 14/04 A2999 RMK AO2 SLP148 T01440044 10194 20144 56010
Loading
Personal Weather Stations






























Interactive Weather Map
Tropical Storm Tracking
New forecast layout! Learn more

10-Day Weather Forecast

Advertisements
Track Severe Weather on mobile